createdAt,value
2024-01-06T00:02:33.653Z,100391.34
2024-01-06T00:17:35.793Z,100401.34
2024-01-06T00:32:38.414Z,100394.44
2024-01-06T00:47:40.615Z,100399.03
2024-01-06T01:02:42.814Z,100427.50
2024-01-06T01:17:45.380Z,100438.19
2024-01-06T01:32:47.511Z,100432.38
2024-01-06T01:47:49.597Z,100432.84
2024-01-06T02:02:51.888Z,100458.25
2024-01-06T02:17:53.901Z,100469.81
2024-01-06T02:32:56.012Z,100473.63
2024-01-06T02:47:58.222Z,100500.22
2024-01-06T03:03:00.379Z,100488.50
2024-01-06T03:18:02.478Z,100510.44
2024-01-06T03:33:05.240Z,100522.88
2024-01-06T03:48:08.711Z,100545.19
2024-01-06T04:03:11.213Z,100575.66
2024-01-06T04:18:13.682Z,100588.94
2024-01-06T04:33:16.030Z,100610.00
2024-01-06T04:48:18.475Z,100597.06
2024-01-06T05:03:20.802Z,100615.47
2024-01-06T05:18:23.046Z,100607.91
2024-01-06T05:33:25.217Z,100615.34
2024-01-06T05:48:27.476Z,100628.69
2024-01-06T06:03:29.700Z,100639.91
2024-01-06T06:18:31.856Z,100646.28
2024-01-06T06:33:35.086Z,100642.78
2024-01-06T06:48:37.718Z,100657.47
2024-01-06T07:03:39.912Z,100663.72
2024-01-06T07:18:42.386Z,100682.53
2024-01-06T07:33:44.754Z,100660.41
2024-01-06T07:48:46.945Z,100658.91
2024-01-06T08:03:49.326Z,100692.13
2024-01-06T08:18:51.501Z,100655.13
2024-01-06T08:33:53.867Z,100635.88
2024-01-06T08:48:56.239Z,100659.88
2024-01-06T09:03:58.532Z,100624.53
2024-01-06T09:19:00.756Z,100627.56
2024-01-06T09:34:07.965Z,100617.31
2024-01-06T09:49:10.814Z,100582.25
2024-01-06T10:04:14.858Z,100574.94
2024-01-06T10:19:20.722Z,100522.84
2024-01-06T10:34:26.358Z,100514.72
2024-01-06T10:49:31.297Z,100489.28
2024-01-06T11:04:33.572Z,100461.47
2024-01-06T11:19:36.334Z,100452.25
2024-01-06T11:34:39.523Z,100440.28
2024-01-06T11:49:46.053Z,100413.69
2024-01-06T12:04:52.885Z,100411.00
2024-01-06T12:19:55.040Z,100386.72
2024-01-06T12:34:57.429Z,100363.59
2024-01-06T12:49:59.742Z,100341.22
2024-01-06T13:05:01.885Z,100332.72
2024-01-06T13:20:04.783Z,100302.66
2024-01-06T13:35:08.269Z,100291.09
2024-01-06T13:50:11.769Z,100282.19
2024-01-06T14:05:14.736Z,100258.69
2024-01-06T14:20:21.170Z,100252.47
2024-01-06T14:35:23.669Z,100233.16
2024-01-06T14:50:25.709Z,100221.56
2024-01-06T15:05:33.654Z,100186.78
2024-01-06T15:20:35.781Z,100183.59
2024-01-06T15:35:37.882Z,100144.97
2024-01-06T15:50:39.900Z,100148.75
2024-01-06T16:05:43.986Z,100118.75
2024-01-06T16:20:47.417Z,100109.72
2024-01-06T16:35:49.406Z,100098.97
2024-01-06T16:50:52.248Z,100081.19
2024-01-06T17:05:54.697Z,100057.72
2024-01-06T17:20:56.896Z,100045.81
2024-01-06T17:35:58.917Z,100034.94
2024-01-06T17:51:01.053Z,100020.75
2024-01-06T18:06:03.740Z,100020.94
2024-01-06T18:21:06.483Z,99998.44
2024-01-06T18:36:09.039Z,99988.28
2024-01-06T18:51:11.314Z,99994.19
2024-01-06T19:06:13.606Z,99967.91
2024-01-06T19:21:16.173Z,99948.69
2024-01-06T19:36:18.374Z,99907.56
2024-01-06T19:51:20.781Z,99904.09
2024-01-06T20:06:23.283Z,99880.31
2024-01-06T20:21:26.387Z,99855.59
2024-01-06T20:36:28.479Z,99866.81
2024-01-06T20:51:33.668Z,99815.75
2024-01-06T21:06:37.535Z,99798.19
2024-01-06T21:21:39.645Z,99762.78
2024-01-06T21:36:42.024Z,99757.97
2024-01-06T21:51:48.975Z,99727.75
2024-01-06T22:06:51.518Z,99759.16
2024-01-06T22:21:55.116Z,99725.28
2024-01-06T22:36:58.484Z,99714.91
2024-01-06T22:52:00.878Z,99715.47
2024-01-06T23:07:05.338Z,99701.75
2024-01-06T23:22:07.621Z,99693.56
2024-01-06T23:37:11.023Z,99730.09
2024-01-06T23:52:13.246Z,99735.69
